sensor_id;sensor_type;location;lat;lon;timestamp;P1;durP1;ratioP1;P2;durP2;ratioP2
25982;SDS011;13773;48.868;10.730;2023-09-30T00:01:01;14.40;;;6.77;;
25982;SDS011;13773;48.868;10.730;2023-09-30T00:03:28;14.80;;;6.93;;
25982;SDS011;13773;48.868;10.730;2023-09-30T00:05:54;11.03;;;6.40;;
25982;SDS011;13773;48.868;10.730;2023-09-30T00:08:20;15.43;;;7.13;;
25982;SDS011;13773;48.868;10.730;2023-09-30T00:10:45;13.10;;;6.63;;
25982;SDS011;13773;48.868;10.730;2023-09-30T00:13:12;15.03;;;7.50;;
25982;SDS011;13773;48.868;10.730;2023-09-30T00:15:38;14.83;;;6.23;;
25982;SDS011;13773;48.868;10.730;2023-09-30T00:18:04;16.90;;;7.77;;
25982;SDS011;13773;48.868;10.730;2023-09-30T00:20:30;13.53;;;6.47;;
25982;SDS011;13773;48.868;10.730;2023-09-30T00:22:56;13.20;;;6.80;;
25982;SDS011;13773;48.868;10.730;2023-09-30T00:25:21;17.07;;;7.10;;
25982;SDS011;13773;48.868;10.730;2023-09-30T00:27:47;12.13;;;6.47;;
25982;SDS011;13773;48.868;10.730;2023-09-30T00:30:13;15.20;;;7.27;;
25982;SDS011;13773;48.868;10.730;2023-09-30T00:32:39;13.27;;;6.97;;
25982;SDS011;13773;48.868;10.730;2023-09-30T00:35:08;10.93;;;5.83;;
25982;SDS011;13773;48.868;10.730;2023-09-30T00:37:36;14.13;;;6.60;;
25982;SDS011;13773;48.868;10.730;2023-09-30T00:40:05;15.13;;;7.10;;
25982;SDS011;13773;48.868;10.730;2023-09-30T00:42:31;15.20;;;7.10;;
25982;SDS011;13773;48.868;10.730;2023-09-30T00:44:57;14.50;;;7.10;;
25982;SDS011;13773;48.868;10.730;2023-09-30T00:47:23;14.07;;;7.17;;
25982;SDS011;13773;48.868;10.730;2023-09-30T00:49:49;10.87;;;6.17;;
25982;SDS011;13773;48.868;10.730;2023-09-30T00:52:16;16.53;;;7.27;;
25982;SDS011;13773;48.868;10.730;2023-09-30T00:54:43;14.20;;;6.83;;
25982;SDS011;13773;48.868;10.730;2023-09-30T00:57:09;11.83;;;6.80;;
25982;SDS011;13773;48.868;10.730;2023-09-30T00:59:36;12.47;;;6.37;;
25982;SDS011;13773;48.868;10.730;2023-09-30T01:02:02;13.13;;;7.43;;
25982;SDS011;13773;48.868;10.730;2023-09-30T01:04:31;13.20;;;7.57;;
25982;SDS011;13773;48.868;10.730;2023-09-30T01:06:57;11.40;;;6.37;;
25982;SDS011;13773;48.868;10.730;2023-09-30T01:09:22;11.33;;;6.60;;
25982;SDS011;13773;48.868;10.730;2023-09-30T01:11:49;17.07;;;7.07;;
25982;SDS011;13773;48.868;10.730;2023-09-30T01:14:24;14.53;;;7.17;;
25982;SDS011;13773;48.868;10.730;2023-09-30T01:16:51;13.30;;;6.57;;
25982;SDS011;13773;48.868;10.730;2023-09-30T01:19:16;13.73;;;6.77;;
25982;SDS011;13773;48.868;10.730;2023-09-30T01:21:42;14.80;;;7.00;;
25982;SDS011;13773;48.868;10.730;2023-09-30T01:24:13;15.03;;;7.03;;
25982;SDS011;13773;48.868;10.730;2023-09-30T01:26:40;11.30;;;7.13;;
25982;SDS011;13773;48.868;10.730;2023-09-30T01:29:07;11.67;;;6.70;;
25982;SDS011;13773;48.868;10.730;2023-09-30T01:31:36;14.07;;;6.67;;
25982;SDS011;13773;48.868;10.730;2023-09-30T01:34:02;12.67;;;6.10;;
25982;SDS011;13773;48.868;10.730;2023-09-30T01:36:28;13.17;;;6.90;;
25982;SDS011;13773;48.868;10.730;2023-09-30T01:38:54;13.10;;;7.17;;
25982;SDS011;13773;48.868;10.730;2023-09-30T01:41:19;12.97;;;7.33;;
25982;SDS011;13773;48.868;10.730;2023-09-30T01:43:45;12.53;;;7.07;;
25982;SDS011;13773;48.868;10.730;2023-09-30T01:46:12;12.60;;;6.87;;
25982;SDS011;13773;48.868;10.730;2023-09-30T01:48:37;12.70;;;7.17;;
25982;SDS011;13773;48.868;10.730;2023-09-30T01:51:03;10.07;;;6.67;;
25982;SDS011;13773;48.868;10.730;2023-09-30T01:53:29;14.37;;;7.70;;
25982;SDS011;13773;48.868;10.730;2023-09-30T01:55:55;11.83;;;7.50;;
25982;SDS011;13773;48.868;10.730;2023-09-30T01:58:20;13.23;;;7.43;;
25982;SDS011;13773;48.868;10.730;2023-09-30T02:00:46;13.70;;;7.67;;
25982;SDS011;13773;48.868;10.730;2023-09-30T02:03:12;14.17;;;8.53;;
25982;SDS011;13773;48.868;10.730;2023-09-30T02:05:40;13.67;;;7.97;;
25982;SDS011;13773;48.868;10.730;2023-09-30T02:08:06;14.97;;;8.37;;
25982;SDS011;13773;48.868;10.730;2023-09-30T02:10:32;11.00;;;7.10;;
25982;SDS011;13773;48.868;10.730;2023-09-30T02:13:00;16.47;;;8.00;;
25982;SDS011;13773;48.868;10.730;2023-09-30T02:15:26;12.10;;;7.50;;
25982;SDS011;13773;48.868;10.730;2023-09-30T02:17:52;13.53;;;7.40;;
25982;SDS011;13773;48.868;10.730;2023-09-30T02:20:18;9.67;;;7.07;;
25982;SDS011;13773;48.868;10.730;2023-09-30T02:22:47;11.70;;;7.37;;
25982;SDS011;13773;48.868;10.730;2023-09-30T02:25:14;10.03;;;6.53;;
25982;SDS011;13773;48.868;10.730;2023-09-30T02:27:40;12.27;;;6.97;;
25982;SDS011;13773;48.868;10.730;2023-09-30T02:30:07;9.13;;;6.30;;
25982;SDS011;13773;48.868;10.730;2023-09-30T02:32:35;12.67;;;6.70;;
25982;SDS011;13773;48.868;10.730;2023-09-30T02:35:02;10.63;;;6.27;;
25982;SDS011;13773;48.868;10.730;2023-09-30T02:37:31;10.90;;;6.63;;
25982;SDS011;13773;48.868;10.730;2023-09-30T02:40:01;9.70;;;5.77;;
25982;SDS011;13773;48.868;10.730;2023-09-30T02:42:29;11.43;;;5.90;;
25982;SDS011;13773;48.868;10.730;2023-09-30T02:44:55;8.27;;;5.33;;
25982;SDS011;13773;48.868;10.730;2023-09-30T02:47:21;11.43;;;5.43;;
25982;SDS011;13773;48.868;10.730;2023-09-30T02:49:46;9.60;;;5.77;;
25982;SDS011;13773;48.868;10.730;2023-09-30T02:52:12;7.70;;;5.33;;
25982;SDS011;13773;48.868;10.730;2023-09-30T02:54:38;7.70;;;5.23;;
25982;SDS011;13773;48.868;10.730;2023-09-30T02:57:03;10.07;;;5.87;;
25982;SDS011;13773;48.868;10.730;2023-09-30T02:59:29;6.93;;;4.63;;
25982;SDS011;13773;48.868;10.730;2023-09-30T03:01:55;8.43;;;5.17;;
25982;SDS011;13773;48.868;10.730;2023-09-30T03:04:21;8.80;;;5.23;;
25982;SDS011;13773;48.868;10.730;2023-09-30T03:06:51;8.30;;;4.70;;
25982;SDS011;13773;48.868;10.730;2023-09-30T03:09:17;7.63;;;5.13;;
25982;SDS011;13773;48.868;10.730;2023-09-30T03:11:42;7.97;;;5.03;;
25982;SDS011;13773;48.868;10.730;2023-09-30T03:14:11;8.50;;;5.40;;
25982;SDS011;13773;48.868;10.730;2023-09-30T03:16:38;8.03;;;6.00;;
25982;SDS011;13773;48.868;10.730;2023-09-30T03:19:06;9.23;;;5.57;;
25982;SDS011;13773;48.868;10.730;2023-09-30T03:21:33;8.10;;;5.03;;
25982;SDS011;13773;48.868;10.730;2023-09-30T03:24:03;7.90;;;5.13;;
25982;SDS011;13773;48.868;10.730;2023-09-30T03:26:29;7.73;;;5.23;;
25982;SDS011;13773;48.868;10.730;2023-09-30T03:28:56;7.67;;;5.13;;
25982;SDS011;13773;48.868;10.730;2023-09-30T03:31:22;9.77;;;5.90;;
25982;SDS011;13773;48.868;10.730;2023-09-30T03:33:50;8.07;;;5.50;;
25982;SDS011;13773;48.868;10.730;2023-09-30T03:36:22;7.67;;;5.20;;
25982;SDS011;13773;48.868;10.730;2023-09-30T03:38:49;8.17;;;5.47;;
25982;SDS011;13773;48.868;10.730;2023-09-30T03:41:19;7.00;;;5.47;;
25982;SDS011;13773;48.868;10.730;2023-09-30T03:43:45;7.40;;;5.50;;
25982;SDS011;13773;48.868;10.730;2023-09-30T03:46:10;7.40;;;6.00;;
25982;SDS011;13773;48.868;10.730;2023-09-30T03:48:37;9.87;;;6.13;;
25982;SDS011;13773;48.868;10.730;2023-09-30T03:51:09;8.57;;;6.70;;
25982;SDS011;13773;48.868;10.730;2023-09-30T03:53:39;10.43;;;6.53;;
25982;SDS011;13773;48.868;10.730;2023-09-30T03:56:05;9.53;;;6.67;;
25982;SDS011;13773;48.868;10.730;2023-09-30T03:58:31;10.83;;;6.67;;
25982;SDS011;13773;48.868;10.730;2023-09-30T04:00:57;9.37;;;7.00;;
25982;SDS011;13773;48.868;10.730;2023-09-30T04:03:25;8.33;;;7.20;;
25982;SDS011;13773;48.868;10.730;2023-09-30T04:05:52;10.63;;;7.70;;
25982;SDS011;13773;48.868;10.730;2023-09-30T04:08:18;9.27;;;7.30;;
25982;SDS011;13773;48.868;10.730;2023-09-30T04:10:44;9.00;;;7.67;;
25982;SDS011;13773;48.868;10.730;2023-09-30T04:13:10;11.20;;;7.83;;
25982;SDS011;13773;48.868;10.730;2023-09-30T04:15:36;10.23;;;7.60;;
25982;SDS011;13773;48.868;10.730;2023-09-30T04:18:03;9.77;;;7.33;;
25982;SDS011;13773;48.868;10.730;2023-09-30T04:20:30;12.27;;;6.97;;
25982;SDS011;13773;48.868;10.730;2023-09-30T04:22:56;7.90;;;6.10;;
25982;SDS011;13773;48.868;10.730;2023-09-30T04:25:22;7.27;;;5.53;;
25982;SDS011;13773;48.868;10.730;2023-09-30T04:27:52;6.47;;;5.33;;
25982;SDS011;13773;48.868;10.730;2023-09-30T04:30:18;9.70;;;5.90;;
25982;SDS011;13773;48.868;10.730;2023-09-30T04:32:44;7.73;;;5.17;;
25982;SDS011;13773;48.868;10.730;2023-09-30T04:35:10;10.33;;;5.67;;
25982;SDS011;13773;48.868;10.730;2023-09-30T04:37:36;8.90;;;5.10;;
25982;SDS011;13773;48.868;10.730;2023-09-30T04:40:06;7.80;;;4.97;;
25982;SDS011;13773;48.868;10.730;2023-09-30T04:42:40;6.47;;;5.00;;
25982;SDS011;13773;48.868;10.730;2023-09-30T04:45:07;7.53;;;5.10;;
25982;SDS011;13773;48.868;10.730;2023-09-30T04:47:35;8.50;;;4.97;;
25982;SDS011;13773;48.868;10.730;2023-09-30T04:50:02;8.87;;;4.97;;
25982;SDS011;13773;48.868;10.730;2023-09-30T04:52:29;8.17;;;5.33;;
25982;SDS011;13773;48.868;10.730;2023-09-30T04:54:56;7.50;;;4.73;;
25982;SDS011;13773;48.868;10.730;2023-09-30T04:57:22;8.70;;;4.87;;
25982;SDS011;13773;48.868;10.730;2023-09-30T04:59:47;6.73;;;4.43;;
25982;SDS011;13773;48.868;10.730;2023-09-30T05:02:13;6.93;;;4.77;;
25982;SDS011;13773;48.868;10.730;2023-09-30T05:04:40;6.57;;;4.93;;
25982;SDS011;13773;48.868;10.730;2023-09-30T05:07:07;6.37;;;3.93;;
25982;SDS011;13773;48.868;10.730;2023-09-30T05:09:33;7.03;;;3.77;;
25982;SDS011;13773;48.868;10.730;2023-09-30T05:11:58;9.90;;;4.00;;
25982;SDS011;13773;48.868;10.730;2023-09-30T05:14:24;6.00;;;3.93;;
25982;SDS011;13773;48.868;10.730;2023-09-30T05:16:50;5.13;;;3.57;;
25982;SDS011;13773;48.868;10.730;2023-09-30T05:19:15;5.73;;;3.70;;
25982;SDS011;13773;48.868;10.730;2023-09-30T05:21:41;4.33;;;3.80;;
25982;SDS011;13773;48.868;10.730;2023-09-30T05:24:07;9.03;;;4.47;;
25982;SDS011;13773;48.868;10.730;2023-09-30T05:26:33;7.03;;;4.23;;
25982;SDS011;13773;48.868;10.730;2023-09-30T05:28:59;5.63;;;3.77;;
25982;SDS011;13773;48.868;10.730;2023-09-30T05:31:25;7.70;;;4.57;;
25982;SDS011;13773;48.868;10.730;2023-09-30T05:33:50;6.50;;;3.87;;
25982;SDS011;13773;48.868;10.730;2023-09-30T05:36:16;5.83;;;4.07;;
25982;SDS011;13773;48.868;10.730;2023-09-30T05:38:42;6.63;;;4.57;;
25982;SDS011;13773;48.868;10.730;2023-09-30T05:41:08;8.40;;;4.67;;
25982;SDS011;13773;48.868;10.730;2023-09-30T05:43:33;8.77;;;4.67;;
25982;SDS011;13773;48.868;10.730;2023-09-30T05:45:59;7.23;;;4.63;;
25982;SDS011;13773;48.868;10.730;2023-09-30T05:48:25;7.27;;;4.30;;
25982;SDS011;13773;48.868;10.730;2023-09-30T05:50:50;5.83;;;4.27;;
25982;SDS011;13773;48.868;10.730;2023-09-30T05:53:16;6.10;;;4.60;;
25982;SDS011;13773;48.868;10.730;2023-09-30T05:55:42;8.07;;;4.70;;
25982;SDS011;13773;48.868;10.730;2023-09-30T05:58:12;6.17;;;4.50;;
25982;SDS011;13773;48.868;10.730;2023-09-30T06:00:41;6.37;;;4.80;;
25982;SDS011;13773;48.868;10.730;2023-09-30T06:03:08;6.07;;;4.70;;
25982;SDS011;13773;48.868;10.730;2023-09-30T06:05:38;8.90;;;4.90;;
25982;SDS011;13773;48.868;10.730;2023-09-30T06:08:05;6.47;;;4.93;;
25982;SDS011;13773;48.868;10.730;2023-09-30T06:10:35;7.33;;;4.70;;
25982;SDS011;13773;48.868;10.730;2023-09-30T06:13:03;6.13;;;4.33;;
25982;SDS011;13773;48.868;10.730;2023-09-30T06:15:28;7.57;;;4.40;;
25982;SDS011;13773;48.868;10.730;2023-09-30T06:17:54;8.87;;;4.97;;
25982;SDS011;13773;48.868;10.730;2023-09-30T06:20:21;7.80;;;4.30;;
25982;SDS011;13773;48.868;10.730;2023-09-30T06:22:47;7.70;;;4.90;;
25982;SDS011;13773;48.868;10.730;2023-09-30T06:25:18;7.37;;;4.40;;
25982;SDS011;13773;48.868;10.730;2023-09-30T06:27:45;6.90;;;4.50;;
25982;SDS011;13773;48.868;10.730;2023-09-30T06:30:11;5.63;;;3.70;;
25982;SDS011;13773;48.868;10.730;2023-09-30T06:32:38;8.30;;;5.27;;
25982;SDS011;13773;48.868;10.730;2023-09-30T06:35:05;6.37;;;4.20;;
25982;SDS011;13773;48.868;10.730;2023-09-30T06:37:34;6.67;;;4.10;;
25982;SDS011;13773;48.868;10.730;2023-09-30T06:40:00;9.23;;;5.30;;
25982;SDS011;13773;48.868;10.730;2023-09-30T06:42:29;5.83;;;4.10;;
25982;SDS011;13773;48.868;10.730;2023-09-30T06:44:55;7.37;;;4.57;;
25982;SDS011;13773;48.868;10.730;2023-09-30T06:47:22;6.23;;;4.43;;
25982;SDS011;13773;48.868;10.730;2023-09-30T06:49:49;7.80;;;4.30;;
25982;SDS011;13773;48.868;10.730;2023-09-30T06:52:14;7.03;;;4.27;;
25982;SDS011;13773;48.868;10.730;2023-09-30T06:54:40;7.10;;;4.33;;
25982;SDS011;13773;48.868;10.730;2023-09-30T06:57:06;7.67;;;4.40;;
25982;SDS011;13773;48.868;10.730;2023-09-30T06:59:33;7.17;;;4.00;;
25982;SDS011;13773;48.868;10.730;2023-09-30T07:01:58;7.13;;;3.77;;
25982;SDS011;13773;48.868;10.730;2023-09-30T07:04:24;6.37;;;3.90;;
25982;SDS011;13773;48.868;10.730;2023-09-30T07:06:52;6.77;;;3.77;;
25982;SDS011;13773;48.868;10.730;2023-09-30T07:09:18;5.67;;;3.80;;
25982;SDS011;13773;48.868;10.730;2023-09-30T07:11:45;6.43;;;3.80;;
25982;SDS011;13773;48.868;10.730;2023-09-30T07:14:11;9.47;;;4.10;;
25982;SDS011;13773;48.868;10.730;2023-09-30T07:16:37;6.47;;;3.90;;
25982;SDS011;13773;48.868;10.730;2023-09-30T07:19:04;8.63;;;3.83;;
25982;SDS011;13773;48.868;10.730;2023-09-30T07:21:30;7.00;;;3.33;;
25982;SDS011;13773;48.868;10.730;2023-09-30T07:23:56;6.57;;;3.77;;
25982;SDS011;13773;48.868;10.730;2023-09-30T07:26:25;7.17;;;3.27;;
25982;SDS011;13773;48.868;10.730;2023-09-30T07:28:51;4.27;;;3.13;;
25982;SDS011;13773;48.868;10.730;2023-09-30T07:31:19;5.83;;;3.60;;
25982;SDS011;13773;48.868;10.730;2023-09-30T07:33:45;9.63;;;3.77;;
25982;SDS011;13773;48.868;10.730;2023-09-30T07:36:10;7.50;;;3.83;;
25982;SDS011;13773;48.868;10.730;2023-09-30T07:38:39;7.37;;;3.70;;
25982;SDS011;13773;48.868;10.730;2023-09-30T07:41:05;6.07;;;3.53;;
25982;SDS011;13773;48.868;10.730;2023-09-30T07:43:31;9.13;;;3.50;;
25982;SDS011;13773;48.868;10.730;2023-09-30T07:45:56;6.37;;;3.63;;
25982;SDS011;13773;48.868;10.730;2023-09-30T07:48:22;6.53;;;3.30;;
25982;SDS011;13773;48.868;10.730;2023-09-30T07:50:50;6.10;;;3.30;;
25982;SDS011;13773;48.868;10.730;2023-09-30T07:53:15;4.47;;;2.73;;
25982;SDS011;13773;48.868;10.730;2023-09-30T07:55:41;4.83;;;3.27;;
25982;SDS011;13773;48.868;10.730;2023-09-30T07:58:07;5.83;;;3.57;;
25982;SDS011;13773;48.868;10.730;2023-09-30T08:00:33;8.33;;;3.30;;
25982;SDS011;13773;48.868;10.730;2023-09-30T08:02:59;7.13;;;3.83;;
25982;SDS011;13773;48.868;10.730;2023-09-30T08:05:26;6.13;;;3.30;;
25982;SDS011;13773;48.868;10.730;2023-09-30T08:07:52;6.37;;;3.37;;
25982;SDS011;13773;48.868;10.730;2023-09-30T08:10:17;7.70;;;3.47;;
25982;SDS011;13773;48.868;10.730;2023-09-30T08:12:43;7.60;;;3.80;;
25982;SDS011;13773;48.868;10.730;2023-09-30T08:15:14;7.27;;;3.30;;
25982;SDS011;13773;48.868;10.730;2023-09-30T08:17:40;8.53;;;3.47;;
25982;SDS011;13773;48.868;10.730;2023-09-30T08:20:06;6.10;;;3.30;;
25982;SDS011;13773;48.868;10.730;2023-09-30T08:22:36;12.50;;;3.93;;
25982;SDS011;13773;48.868;10.730;2023-09-30T08:25:02;6.57;;;3.20;;
25982;SDS011;13773;48.868;10.730;2023-09-30T08:27:28;8.27;;;3.47;;
25982;SDS011;13773;48.868;10.730;2023-09-30T08:29:53;5.00;;;3.00;;
25982;SDS011;13773;48.868;10.730;2023-09-30T08:32:19;4.90;;;2.90;;
25982;SDS011;13773;48.868;10.730;2023-09-30T08:34:46;6.10;;;3.53;;
25982;SDS011;13773;48.868;10.730;2023-09-30T08:37:11;8.10;;;3.47;;
25982;SDS011;13773;48.868;10.730;2023-09-30T08:39:37;4.17;;;2.90;;
25982;SDS011;13773;48.868;10.730;2023-09-30T08:42:06;4.93;;;2.93;;
25982;SDS011;13773;48.868;10.730;2023-09-30T08:44:37;4.70;;;3.20;;
25982;SDS011;13773;48.868;10.730;2023-09-30T08:47:05;6.90;;;3.63;;
25982;SDS011;13773;48.868;10.730;2023-09-30T08:49:37;7.77;;;3.60;;
25982;SDS011;13773;48.868;10.730;2023-09-30T08:52:06;4.90;;;2.80;;
25982;SDS011;13773;48.868;10.730;2023-09-30T08:54:34;6.57;;;3.33;;
25982;SDS011;13773;48.868;10.730;2023-09-30T08:57:00;6.90;;;3.13;;
25982;SDS011;13773;48.868;10.730;2023-09-30T08:59:29;7.37;;;4.07;;
25982;SDS011;13773;48.868;10.730;2023-09-30T09:01:59;6.43;;;3.47;;
25982;SDS011;13773;48.868;10.730;2023-09-30T09:04:25;7.30;;;3.50;;
25982;SDS011;13773;48.868;10.730;2023-09-30T09:06:53;5.63;;;3.03;;
25982;SDS011;13773;48.868;10.730;2023-09-30T09:09:20;6.33;;;3.33;;
25982;SDS011;13773;48.868;10.730;2023-09-30T09:11:47;7.07;;;3.50;;
25982;SDS011;13773;48.868;10.730;2023-09-30T09:14:13;9.40;;;4.47;;
25982;SDS011;13773;48.868;10.730;2023-09-30T09:16:52;8.33;;;3.90;;
25982;SDS011;13773;48.868;10.730;2023-09-30T09:19:22;8.17;;;4.17;;
25982;SDS011;13773;48.868;10.730;2023-09-30T09:21:56;6.20;;;4.20;;
25982;SDS011;13773;48.868;10.730;2023-09-30T09:24:33;7.83;;;4.50;;
25982;SDS011;13773;48.868;10.730;2023-09-30T09:27:09;6.77;;;4.13;;
25982;SDS011;13773;48.868;10.730;2023-09-30T09:29:36;6.27;;;4.07;;
25982;SDS011;13773;48.868;10.730;2023-09-30T09:32:09;6.17;;;4.00;;
25982;SDS011;13773;48.868;10.730;2023-09-30T09:34:39;5.87;;;4.00;;
25982;SDS011;13773;48.868;10.730;2023-09-30T09:37:12;7.00;;;4.93;;
25982;SDS011;13773;48.868;10.730;2023-09-30T09:42:29;10.17;;;4.50;;
25982;SDS011;13773;48.868;10.730;2023-09-30T09:45:00;9.00;;;4.20;;
25982;SDS011;13773;48.868;10.730;2023-09-30T09:47:27;9.63;;;4.50;;
25982;SDS011;13773;48.868;10.730;2023-09-30T09:49:55;8.73;;;4.67;;
25982;SDS011;13773;48.868;10.730;2023-09-30T09:52:22;8.63;;;4.50;;
25982;SDS011;13773;48.868;10.730;2023-09-30T09:54:49;10.67;;;4.63;;
25982;SDS011;13773;48.868;10.730;2023-09-30T09:57:16;6.40;;;4.20;;
25982;SDS011;13773;48.868;10.730;2023-09-30T09:59:43;6.07;;;4.27;;
25982;SDS011;13773;48.868;10.730;2023-09-30T10:02:13;9.33;;;4.77;;
25982;SDS011;13773;48.868;10.730;2023-09-30T10:04:46;8.30;;;5.03;;
25982;SDS011;13773;48.868;10.730;2023-09-30T10:07:20;7.53;;;4.20;;
25982;SDS011;13773;48.868;10.730;2023-09-30T10:09:49;5.67;;;4.30;;
25982;SDS011;13773;48.868;10.730;2023-09-30T10:12:17;6.07;;;3.90;;
25982;SDS011;13773;48.868;10.730;2023-09-30T10:14:44;6.87;;;4.40;;
25982;SDS011;13773;48.868;10.730;2023-09-30T10:17:10;9.90;;;4.87;;
25982;SDS011;13773;48.868;10.730;2023-09-30T10:19:36;9.03;;;5.03;;
25982;SDS011;13773;48.868;10.730;2023-09-30T10:22:30;10.90;;;5.00;;
25982;SDS011;13773;48.868;10.730;2023-09-30T10:24:59;5.60;;;4.27;;
25982;SDS011;13773;48.868;10.730;2023-09-30T10:35:41;5.77;;;4.60;;
25982;SDS011;13773;48.868;10.730;2023-09-30T10:40:50;9.17;;;4.80;;
25982;SDS011;13773;48.868;10.730;2023-09-30T10:43:32;8.60;;;5.27;;
25982;SDS011;13773;48.868;10.730;2023-09-30T10:45:59;9.40;;;5.20;;
25982;SDS011;13773;48.868;10.730;2023-09-30T10:53:19;8.63;;;5.27;;
25982;SDS011;13773;48.868;10.730;2023-09-30T10:55:45;8.97;;;5.43;;
25982;SDS011;13773;48.868;10.730;2023-09-30T10:58:12;8.83;;;5.20;;
25982;SDS011;13773;48.868;10.730;2023-09-30T11:00:38;9.40;;;5.50;;
25982;SDS011;13773;48.868;10.730;2023-09-30T11:03:04;10.17;;;5.57;;
25982;SDS011;13773;48.868;10.730;2023-09-30T11:05:31;8.47;;;5.50;;
25982;SDS011;13773;48.868;10.730;2023-09-30T11:07:59;9.00;;;5.43;;
25982;SDS011;13773;48.868;10.730;2023-09-30T11:10:28;9.63;;;5.17;;
25982;SDS011;13773;48.868;10.730;2023-09-30T11:12:58;10.37;;;5.37;;
25982;SDS011;13773;48.868;10.730;2023-09-30T11:15:24;8.57;;;5.37;;
25982;SDS011;13773;48.868;10.730;2023-09-30T11:17:51;10.30;;;6.40;;
25982;SDS011;13773;48.868;10.730;2023-09-30T11:20:17;9.57;;;6.00;;
25982;SDS011;13773;48.868;10.730;2023-09-30T11:22:44;14.20;;;5.77;;
25982;SDS011;13773;48.868;10.730;2023-09-30T11:25:28;9.83;;;5.70;;
25982;SDS011;13773;48.868;10.730;2023-09-30T11:28:15;8.43;;;5.57;;
25982;SDS011;13773;48.868;10.730;2023-09-30T11:33:20;9.83;;;6.00;;
25982;SDS011;13773;48.868;10.730;2023-09-30T11:36:00;11.47;;;6.57;;
25982;SDS011;13773;48.868;10.730;2023-09-30T11:38:28;11.57;;;6.00;;
25982;SDS011;13773;48.868;10.730;2023-09-30T11:41:04;9.00;;;5.77;;
25982;SDS011;13773;48.868;10.730;2023-09-30T11:43:32;12.83;;;6.17;;
25982;SDS011;13773;48.868;10.730;2023-09-30T11:48:31;11.13;;;5.83;;
25982;SDS011;13773;48.868;10.730;2023-09-30T11:50:58;10.07;;;6.67;;
25982;SDS011;13773;48.868;10.730;2023-09-30T11:53:28;9.60;;;5.83;;
25982;SDS011;13773;48.868;10.730;2023-09-30T11:55:57;9.90;;;5.80;;
25982;SDS011;13773;48.868;10.730;2023-09-30T11:58:28;11.03;;;6.50;;
25982;SDS011;13773;48.868;10.730;2023-09-30T12:00:54;11.20;;;6.17;;
25982;SDS011;13773;48.868;10.730;2023-09-30T12:03:22;10.17;;;6.10;;
25982;SDS011;13773;48.868;10.730;2023-09-30T12:05:49;11.00;;;6.60;;
25982;SDS011;13773;48.868;10.730;2023-09-30T12:08:15;10.13;;;6.50;;
25982;SDS011;13773;48.868;10.730;2023-09-30T12:10:40;11.80;;;6.57;;
25982;SDS011;13773;48.868;10.730;2023-09-30T12:13:06;11.10;;;6.23;;
25982;SDS011;13773;48.868;10.730;2023-09-30T12:15:32;11.50;;;6.00;;
25982;SDS011;13773;48.868;10.730;2023-09-30T12:17:57;9.87;;;6.10;;
25982;SDS011;13773;48.868;10.730;2023-09-30T12:20:23;9.43;;;6.30;;
25982;SDS011;13773;48.868;10.730;2023-09-30T12:22:50;12.67;;;6.77;;
25982;SDS011;13773;48.868;10.730;2023-09-30T12:25:18;10.87;;;6.30;;
25982;SDS011;13773;48.868;10.730;2023-09-30T12:27:47;11.10;;;7.00;;
25982;SDS011;13773;48.868;10.730;2023-09-30T12:30:13;11.57;;;6.10;;
25982;SDS011;13773;48.868;10.730;2023-09-30T12:32:39;9.97;;;6.13;;
25982;SDS011;13773;48.868;10.730;2023-09-30T12:35:05;13.17;;;7.00;;
25982;SDS011;13773;48.868;10.730;2023-09-30T12:37:31;9.93;;;6.77;;
25982;SDS011;13773;48.868;10.730;2023-09-30T12:39:57;11.00;;;6.67;;
25982;SDS011;13773;48.868;10.730;2023-09-30T12:42:23;11.23;;;6.33;;
25982;SDS011;13773;48.868;10.730;2023-09-30T12:44:49;11.13;;;6.57;;
25982;SDS011;13773;48.868;10.730;2023-09-30T12:47:15;11.67;;;6.40;;
25982;SDS011;13773;48.868;10.730;2023-09-30T12:49:41;9.50;;;6.03;;
25982;SDS011;13773;48.868;10.730;2023-09-30T12:52:07;11.50;;;6.47;;
25982;SDS011;13773;48.868;10.730;2023-09-30T12:54:32;10.37;;;6.60;;
25982;SDS011;13773;48.868;10.730;2023-09-30T12:56:59;9.43;;;5.77;;
25982;SDS011;13773;48.868;10.730;2023-09-30T12:59:25;10.30;;;6.00;;
25982;SDS011;13773;48.868;10.730;2023-09-30T13:01:51;8.87;;;6.13;;
25982;SDS011;13773;48.868;10.730;2023-09-30T13:04:17;8.87;;;6.13;;
25982;SDS011;13773;48.868;10.730;2023-09-30T13:06:43;11.00;;;6.77;;
25982;SDS011;13773;48.868;10.730;2023-09-30T13:09:10;8.77;;;5.87;;
25982;SDS011;13773;48.868;10.730;2023-09-30T13:11:36;10.33;;;6.00;;
25982;SDS011;13773;48.868;10.730;2023-09-30T13:14:02;11.50;;;6.73;;
25982;SDS011;13773;48.868;10.730;2023-09-30T13:16:28;10.73;;;6.43;;
25982;SDS011;13773;48.868;10.730;2023-09-30T13:18:54;11.20;;;6.63;;
25982;SDS011;13773;48.868;10.730;2023-09-30T13:21:20;10.23;;;6.00;;
25982;SDS011;13773;48.868;10.730;2023-09-30T13:23:46;10.83;;;6.83;;
25982;SDS011;13773;48.868;10.730;2023-09-30T13:26:11;9.87;;;6.67;;
25982;SDS011;13773;48.868;10.730;2023-09-30T13:28:37;10.07;;;5.83;;
25982;SDS011;13773;48.868;10.730;2023-09-30T13:31:03;9.73;;;5.97;;
25982;SDS011;13773;48.868;10.730;2023-09-30T13:33:28;11.60;;;6.20;;
25982;SDS011;13773;48.868;10.730;2023-09-30T13:35:54;10.77;;;6.63;;
25982;SDS011;13773;48.868;10.730;2023-09-30T13:38:20;10.80;;;6.60;;
25982;SDS011;13773;48.868;10.730;2023-09-30T13:40:46;11.97;;;6.40;;
25982;SDS011;13773;48.868;10.730;2023-09-30T13:43:12;10.80;;;6.10;;
25982;SDS011;13773;48.868;10.730;2023-09-30T13:45:38;12.23;;;6.80;;
25982;SDS011;13773;48.868;10.730;2023-09-30T13:48:03;11.87;;;6.40;;
25982;SDS011;13773;48.868;10.730;2023-09-30T13:50:29;11.43;;;6.43;;
25982;SDS011;13773;48.868;10.730;2023-09-30T13:52:55;11.57;;;6.90;;
25982;SDS011;13773;48.868;10.730;2023-09-30T13:55:21;11.67;;;6.77;;
25982;SDS011;13773;48.868;10.730;2023-09-30T13:57:46;10.27;;;6.23;;
25982;SDS011;13773;48.868;10.730;2023-09-30T14:00:13;11.23;;;6.50;;
25982;SDS011;13773;48.868;10.730;2023-09-30T14:02:39;10.67;;;6.40;;
25982;SDS011;13773;48.868;10.730;2023-09-30T14:05:05;10.30;;;6.77;;
25982;SDS011;13773;48.868;10.730;2023-09-30T14:07:34;10.60;;;6.63;;
25982;SDS011;13773;48.868;10.730;2023-09-30T14:10:01;11.00;;;6.50;;
25982;SDS011;13773;48.868;10.730;2023-09-30T14:12:30;10.00;;;6.27;;
25982;SDS011;13773;48.868;10.730;2023-09-30T14:14:56;11.87;;;6.47;;
25982;SDS011;13773;48.868;10.730;2023-09-30T14:17:22;11.13;;;7.17;;
25982;SDS011;13773;48.868;10.730;2023-09-30T14:19:47;11.07;;;6.13;;
25982;SDS011;13773;48.868;10.730;2023-09-30T14:22:14;12.30;;;6.50;;
25982;SDS011;13773;48.868;10.730;2023-09-30T14:24:40;12.53;;;6.90;;
25982;SDS011;13773;48.868;10.730;2023-09-30T14:27:06;12.17;;;6.90;;
25982;SDS011;13773;48.868;10.730;2023-09-30T14:29:32;11.87;;;7.07;;
25982;SDS011;13773;48.868;10.730;2023-09-30T14:31:58;10.90;;;6.70;;
25982;SDS011;13773;48.868;10.730;2023-09-30T14:34:24;11.80;;;6.40;;
25982;SDS011;13773;48.868;10.730;2023-09-30T14:36:50;11.57;;;7.00;;
25982;SDS011;13773;48.868;10.730;2023-09-30T14:39:16;11.80;;;6.17;;
25982;SDS011;13773;48.868;10.730;2023-09-30T14:41:43;11.97;;;6.80;;
25982;SDS011;13773;48.868;10.730;2023-09-30T14:44:08;13.73;;;6.70;;
25982;SDS011;13773;48.868;10.730;2023-09-30T14:46:36;11.37;;;6.90;;
25982;SDS011;13773;48.868;10.730;2023-09-30T14:49:03;10.53;;;6.40;;
25982;SDS011;13773;48.868;10.730;2023-09-30T14:51:31;9.73;;;6.33;;